createdAt,value
2019-06-10T00:01:14.568Z,5.58
2019-06-10T00:03:43.231Z,8.50
2019-06-10T00:06:11.936Z,7.60
2019-06-10T00:08:41.193Z,7.58
2019-06-10T00:11:11.669Z,7.33
2019-06-10T00:13:41.471Z,4.65
2019-06-10T00:16:11.448Z,6.15
2019-06-10T00:18:42.929Z,6.55
2019-06-10T00:21:11.171Z,7.20
2019-06-10T00:23:41.216Z,6.35
2019-06-10T00:26:12.485Z,6.95
2019-06-10T00:28:40.730Z,5.95
2019-06-10T00:31:11.324Z,7.28
2019-06-10T00:33:41.421Z,8.55
2019-06-10T00:36:13.665Z,7.30
2019-06-10T00:38:45.459Z,6.58
2019-06-10T00:41:17.251Z,5.55
2019-06-10T00:43:45.964Z,6.30
2019-06-10T00:46:14.605Z,6.65
2019-06-10T00:48:43.308Z,8.13
2019-06-10T00:51:13.227Z,7.15
2019-06-10T00:53:42.377Z,5.80
2019-06-10T00:56:13.991Z,8.35
2019-06-10T00:58:41.353Z,8.15
2019-06-10T01:01:13.070Z,8.63
2019-06-10T01:03:41.562Z,7.03
2019-06-10T01:06:14.656Z,7.15
2019-06-10T01:08:40.704Z,7.87
2019-06-10T01:11:20.373Z,7.40
2019-06-10T01:13:41.963Z,6.47
2019-06-10T01:16:12.604Z,6.87
2019-06-10T01:18:41.813Z,8.15
2019-06-10T01:21:13.885Z,8.15
2019-06-10T01:23:41.731Z,6.45
2019-06-10T01:26:13.009Z,8.35
2019-06-10T01:28:41.003Z,5.30
2019-06-10T01:31:13.126Z,5.97
2019-06-10T01:33:41.134Z,8.95
2019-06-10T01:36:12.685Z,4.95
2019-06-10T01:38:40.928Z,11.83
2019-06-10T01:41:14.166Z,6.08
2019-06-10T01:43:51.249Z,8.13
2019-06-10T01:46:22.632Z,7.12
2019-06-10T01:48:52.217Z,8.13
2019-06-10T01:51:21.490Z,5.35
2019-06-10T01:53:54.646Z,6.65
2019-06-10T01:56:23.302Z,6.65
2019-06-10T01:58:52.167Z,8.10
2019-06-10T02:01:34.167Z,12.88
2019-06-10T02:04:02.953Z,6.70
2019-06-10T02:06:31.774Z,8.05
2019-06-10T02:09:06.575Z,9.03
2019-06-10T02:11:35.888Z,7.85
2019-06-10T02:14:05.636Z,6.30
2019-06-10T02:16:34.284Z,5.37
2019-06-10T02:19:04.355Z,6.37
2019-06-10T02:21:32.926Z,6.97
2019-06-10T02:24:01.475Z,7.53
2019-06-10T02:26:30.875Z,8.35
2019-06-10T02:29:03.176Z,7.33
2019-06-10T02:31:37.561Z,12.70
2019-06-10T02:34:02.760Z,9.00
2019-06-10T02:36:36.566Z,14.75
2019-06-10T02:39:04.599Z,8.73
2019-06-10T02:41:36.213Z,10.65
2019-06-10T02:44:04.328Z,6.75
2019-06-10T02:46:36.118Z,4.42
2019-06-10T02:49:20.787Z,5.25
2019-06-10T02:51:35.748Z,3.98
2019-06-10T02:54:04.747Z,7.37
2019-06-10T02:56:37.831Z,3.92
2019-06-10T02:59:06.413Z,7.17
2019-06-10T03:01:38.005Z,6.97
2019-06-10T03:04:05.207Z,8.13
2019-06-10T03:06:39.372Z,7.45
2019-06-10T03:09:05.670Z,9.75
2019-06-10T03:11:37.052Z,8.13
2019-06-10T03:14:04.851Z,4.58
2019-06-10T03:16:35.000Z,6.67
2019-06-10T03:19:03.654Z,6.92
2019-06-10T03:21:34.797Z,9.13
2019-06-10T03:24:03.589Z,6.60
2019-06-10T03:26:32.419Z,7.15
2019-06-10T03:29:02.726Z,7.22
2019-06-10T03:31:41.136Z,11.53
2019-06-10T03:34:05.077Z,7.30
2019-06-10T03:36:32.976Z,9.50
2019-06-10T03:39:04.935Z,6.90
2019-06-10T03:41:33.515Z,8.93
2019-06-10T03:44:03.720Z,9.28
2019-06-10T03:46:32.918Z,8.35
2019-06-10T03:49:03.194Z,8.05
2019-06-10T03:51:34.594Z,15.75
2019-06-10T03:54:04.304Z,23.85
2019-06-10T03:56:32.900Z,13.58
2019-06-10T03:59:02.818Z,10.53
2019-06-10T04:01:33.368Z,6.45
2019-06-10T04:04:02.428Z,9.33
2019-06-10T04:06:33.720Z,12.85
2019-06-10T04:09:02.796Z,10.05
2019-06-10T04:11:35.462Z,14.03
2019-06-10T04:14:05.456Z,8.03
2019-06-10T04:16:34.263Z,9.45
2019-06-10T04:19:02.853Z,15.63
2019-06-10T04:21:32.617Z,13.22
2019-06-10T04:24:05.433Z,11.75
2019-06-10T04:26:34.119Z,15.85
2019-06-10T04:29:02.891Z,15.78
2019-06-10T04:31:33.073Z,15.50
2019-06-10T04:34:03.130Z,11.75
2019-06-10T04:36:33.377Z,16.32
2019-06-10T04:39:03.271Z,12.93
2019-06-10T04:41:32.553Z,18.73
2019-06-10T04:44:02.600Z,13.50
2019-06-10T04:46:32.489Z,16.52
2019-06-10T04:49:02.832Z,10.95
2019-06-10T04:51:39.698Z,12.63
2019-06-10T04:54:14.487Z,11.03
2019-06-10T04:56:42.856Z,13.03
2019-06-10T04:59:13.150Z,6.80
2019-06-10T05:01:45.393Z,15.38
2019-06-10T05:04:16.553Z,15.50
2019-06-10T05:06:45.324Z,33.55
2019-06-10T05:09:16.570Z,10.15
2019-06-10T05:11:47.946Z,9.55
2019-06-10T05:14:16.603Z,7.97
2019-06-10T05:16:45.390Z,5.10
2019-06-10T05:19:14.000Z,5.20
2019-06-10T05:21:45.116Z,11.80
2019-06-10T05:24:13.807Z,10.90
2019-06-10T05:26:52.563Z,9.25
2019-06-10T05:29:22.952Z,7.33
2019-06-10T05:31:52.278Z,9.93
2019-06-10T05:34:25.272Z,20.43
2019-06-10T05:36:52.523Z,19.90
2019-06-10T05:39:23.719Z,12.50
2019-06-10T05:41:54.289Z,7.70
2019-06-10T05:44:25.242Z,13.03
2019-06-10T05:46:53.185Z,12.40
2019-06-10T05:49:24.215Z,6.30
2019-06-10T05:51:52.698Z,4.83
2019-06-10T05:54:23.368Z,4.33
2019-06-10T05:56:52.725Z,9.33
2019-06-10T05:59:23.066Z,9.53
2019-06-10T06:01:55.844Z,7.08
2019-06-10T06:06:53.862Z,8.98
2019-06-10T06:09:25.135Z,5.87
2019-06-10T06:11:53.775Z,11.93
2019-06-10T06:14:25.495Z,4.70
2019-06-10T06:16:54.316Z,5.90
2019-06-10T06:19:23.250Z,2.52
2019-06-10T06:21:53.069Z,3.67
2019-06-10T06:24:22.084Z,5.05
2019-06-10T06:26:53.275Z,3.47
2019-06-10T06:29:22.311Z,9.55
2019-06-10T06:31:52.363Z,9.85
2019-06-10T06:34:26.873Z,2.47
2019-06-10T06:37:02.220Z,6.42
2019-06-10T06:39:33.498Z,4.12
2019-06-10T06:42:08.790Z,4.15
2019-06-10T06:44:39.527Z,17.02
2019-06-10T06:47:13.230Z,40.12
2019-06-10T06:49:42.544Z,14.10
2019-06-10T06:52:12.824Z,4.40
2019-06-10T06:54:42.488Z,5.40
2019-06-10T06:57:13.033Z,5.55
2019-06-10T06:59:43.212Z,4.58
2019-06-10T07:02:12.409Z,6.92
2019-06-10T07:04:43.183Z,6.35
2019-06-10T07:07:13.193Z,5.08
2019-06-10T07:09:43.390Z,7.78
2019-06-10T07:12:13.033Z,6.15
2019-06-10T07:14:44.996Z,4.05
2019-06-10T07:17:13.447Z,8.48
2019-06-10T07:19:45.629Z,4.50
2019-06-10T07:22:16.166Z,9.80
2019-06-10T07:24:47.586Z,8.58
2019-06-10T07:27:16.173Z,6.95
2019-06-10T07:29:47.175Z,6.72
2019-06-10T07:32:14.975Z,8.23
2019-06-10T07:34:46.761Z,9.38
2019-06-10T07:37:13.805Z,4.75
2019-06-10T07:39:45.161Z,9.98
2019-06-10T07:42:13.608Z,8.75
2019-06-10T07:44:43.985Z,11.28
2019-06-10T07:47:12.898Z,4.33
2019-06-10T07:49:43.953Z,13.48
2019-06-10T07:52:18.515Z,10.30
2019-06-10T07:54:43.742Z,11.53
2019-06-10T07:57:12.940Z,6.97
2019-06-10T07:59:44.503Z,3.98
2019-06-10T08:02:12.455Z,5.85
2019-06-10T08:04:44.114Z,7.58
2019-06-10T08:07:14.947Z,6.65
2019-06-10T08:09:45.319Z,4.00
2019-06-10T08:12:13.893Z,5.75
2019-06-10T08:14:44.284Z,18.80
2019-06-10T08:17:16.507Z,22.50
2019-06-10T08:22:29.838Z,9.53
2019-06-10T08:24:45.362Z,5.50
2019-06-10T08:27:17.686Z,4.67
2019-06-10T08:32:15.683Z,6.00
2019-06-10T08:34:46.080Z,13.83
2019-06-10T08:37:14.503Z,6.95
2019-06-10T08:39:45.869Z,6.95
2019-06-10T08:42:14.406Z,7.40
2019-06-10T08:44:43.945Z,2.20
2019-06-10T08:47:15.047Z,6.15
2019-06-10T08:49:46.205Z,4.87
2019-06-10T08:52:13.908Z,7.15
2019-06-10T08:54:46.103Z,5.97
2019-06-10T08:57:12.877Z,6.37
2019-06-10T08:59:46.032Z,4.05
2019-06-10T09:02:13.919Z,6.55
2019-06-10T09:04:45.419Z,4.10
2019-06-10T09:07:12.837Z,3.37
2019-06-10T09:09:47.410Z,5.25
2019-06-10T09:14:45.494Z,4.40
2019-06-10T09:17:14.118Z,4.72
2019-06-10T09:19:46.106Z,7.75
2019-06-10T09:22:13.972Z,7.85
2019-06-10T09:24:45.566Z,6.53
2019-06-10T09:27:13.470Z,7.65
2019-06-10T09:29:47.335Z,2.83
2019-06-10T09:32:12.651Z,3.45
2019-06-10T09:34:43.034Z,3.47
2019-06-10T09:37:14.152Z,6.67
2019-06-10T09:39:58.338Z,3.98
2019-06-10T09:42:23.242Z,12.80
2019-06-10T09:44:55.068Z,7.35
2019-06-10T09:47:22.691Z,5.70
2019-06-10T09:49:55.542Z,10.25
2019-06-10T09:52:24.045Z,6.75
2019-06-10T09:54:56.823Z,8.08
2019-06-10T09:57:23.920Z,11.53
2019-06-10T09:59:56.329Z,9.63
2019-06-10T10:02:25.479Z,10.82
2019-06-10T10:04:58.357Z,6.95
2019-06-10T10:07:27.494Z,5.15
2019-06-10T10:09:57.473Z,6.05
2019-06-10T10:12:28.933Z,5.58
2019-06-10T10:15:23.307Z,7.78
2019-06-10T10:17:37.059Z,5.42
2019-06-10T10:20:09.361Z,4.78
2019-06-10T10:22:38.921Z,14.00
2019-06-10T10:25:16.186Z,5.83
2019-06-10T10:27:46.558Z,4.72
2019-06-10T10:30:13.485Z,4.58
2019-06-10T10:32:44.330Z,3.25
2019-06-10T10:35:16.400Z,7.10
2019-06-10T10:37:45.006Z,4.57
2019-06-10T10:40:13.671Z,4.60
2019-06-10T10:42:48.167Z,9.43
2019-06-10T10:45:13.799Z,6.25
2019-06-10T10:47:42.810Z,11.15
2019-06-10T10:50:13.991Z,7.72
2019-06-10T10:52:49.946Z,7.22
2019-06-10T10:55:18.893Z,9.75
2019-06-10T10:57:47.555Z,8.60
2019-06-10T11:00:17.672Z,5.20
2019-06-10T11:02:48.703Z,5.80
2019-06-10T11:05:34.909Z,15.58
2019-06-10T11:08:04.369Z,3.67
2019-06-10T11:10:36.844Z,9.03
2019-06-10T11:13:09.990Z,8.75
2019-06-10T11:15:38.774Z,4.45
2019-06-10T11:18:07.366Z,9.10
2019-06-10T11:20:36.235Z,12.07
2019-06-10T11:23:05.234Z,7.08
2019-06-10T11:25:34.936Z,6.30
2019-06-10T11:28:04.226Z,8.83
2019-06-10T11:30:33.257Z,8.40
2019-06-10T11:33:03.254Z,7.28
2019-06-10T11:35:32.157Z,6.35
2019-06-10T11:38:04.111Z,4.85
2019-06-10T11:40:34.170Z,9.88
2019-06-10T11:43:03.036Z,6.97
2019-06-10T11:45:36.725Z,10.90
2019-06-10T11:48:05.407Z,8.88
2019-06-10T11:50:33.998Z,8.15
2019-06-10T11:53:06.269Z,10.30
2019-06-10T11:55:38.947Z,7.15
2019-06-10T11:58:08.109Z,10.63
2019-06-10T12:00:36.908Z,8.33
2019-06-10T12:03:06.002Z,4.75
2019-06-10T12:05:34.748Z,7.72
2019-06-10T12:08:03.548Z,8.38
2019-06-10T12:10:33.027Z,8.75
2019-06-10T12:13:06.958Z,4.87
2019-06-10T12:16:12.741Z,9.28
2019-06-10T12:18:08.395Z,9.13
2019-06-10T12:20:35.402Z,3.52
2019-06-10T12:23:04.673Z,8.63
2019-06-10T12:25:39.275Z,6.53
2019-06-10T12:28:07.154Z,4.65
2019-06-10T12:30:34.537Z,10.98
2019-06-10T12:33:05.626Z,4.80
2019-06-10T12:35:39.497Z,7.15
2019-06-10T12:38:08.106Z,3.17
2019-06-10T12:40:36.676Z,7.12
2019-06-10T12:43:07.143Z,7.28
2019-06-10T12:45:38.266Z,9.48
2019-06-10T12:48:07.078Z,6.37
2019-06-10T12:50:38.031Z,5.35
2019-06-10T12:53:09.271Z,11.57
2019-06-10T12:55:44.423Z,5.00
2019-06-10T12:58:12.104Z,8.50
2019-06-10T13:00:42.294Z,8.60
2019-06-10T13:03:12.914Z,6.20
2019-06-10T13:05:42.647Z,6.95
2019-06-10T13:08:15.642Z,8.55
2019-06-10T13:10:46.792Z,9.65
2019-06-10T13:13:15.407Z,6.45
2019-06-10T13:15:44.291Z,16.15
2019-06-10T13:18:18.877Z,11.85
2019-06-10T13:20:44.001Z,7.37
2019-06-10T13:23:23.197Z,6.20
2019-06-10T13:25:54.556Z,7.53
2019-06-10T13:28:13.226Z,12.23
2019-06-10T13:30:42.828Z,10.93
2019-06-10T13:33:14.428Z,5.95
2019-06-10T13:35:44.318Z,7.28
2019-06-10T13:38:12.161Z,6.22
2019-06-10T13:40:42.842Z,7.78
2019-06-10T13:43:13.026Z,5.85
2019-06-10T13:45:42.960Z,8.68
2019-06-10T13:48:14.827Z,9.13
2019-06-10T13:50:42.391Z,5.00
2019-06-10T13:53:13.457Z,5.03
2019-06-10T13:55:43.718Z,3.77
2019-06-10T13:58:14.719Z,6.03
2019-06-10T14:00:46.559Z,7.10
2019-06-10T14:03:16.119Z,6.40
2019-06-10T14:05:44.913Z,6.03
2019-06-10T14:08:15.314Z,14.33
2019-06-10T14:10:43.932Z,6.58
2019-06-10T14:13:15.359Z,11.53
2019-06-10T14:15:46.760Z,9.45
2019-06-10T14:18:15.460Z,9.38
2019-06-10T14:20:44.619Z,14.10
2019-06-10T14:23:17.172Z,11.60
2019-06-10T14:25:43.536Z,11.78
2019-06-10T14:28:19.680Z,16.95
2019-06-10T14:30:43.085Z,6.58
2019-06-10T14:33:14.353Z,8.70
2019-06-10T14:35:42.872Z,6.12
2019-06-10T14:38:14.044Z,9.03
2019-06-10T14:40:45.443Z,4.60
2019-06-10T14:43:16.218Z,6.60
2019-06-10T14:45:44.559Z,11.57
2019-06-10T14:48:17.662Z,12.05
2019-06-10T14:50:50.015Z,16.00
2019-06-10T14:53:18.703Z,8.60
2019-06-10T14:55:53.169Z,7.45
2019-06-10T14:58:23.148Z,8.85
2019-06-10T15:00:54.850Z,9.88
2019-06-10T15:03:23.397Z,8.20
2019-06-10T15:05:52.915Z,8.10
2019-06-10T15:08:26.832Z,6.28
2019-06-10T15:10:55.503Z,5.30
2019-06-10T15:13:26.534Z,9.58
2019-06-10T15:15:56.378Z,6.40
2019-06-10T15:18:25.035Z,13.72
2019-06-10T15:20:53.936Z,8.63
2019-06-10T15:23:23.531Z,11.03
2019-06-10T15:25:56.516Z,12.35
2019-06-10T15:28:23.545Z,17.27
2019-06-10T15:30:52.900Z,13.60
2019-06-10T15:33:23.546Z,7.45
2019-06-10T15:35:53.229Z,11.95
2019-06-10T15:38:23.300Z,8.95
2019-06-10T15:40:53.283Z,15.55
2019-06-10T15:43:23.489Z,10.72
2019-06-10T15:45:59.518Z,5.97
2019-06-10T15:48:28.178Z,8.93
2019-06-10T15:50:56.780Z,11.97
2019-06-10T15:53:28.965Z,5.95
2019-06-10T15:56:23.780Z,12.90
2019-06-10T15:58:27.851Z,21.40
2019-06-10T16:01:02.912Z,12.40
2019-06-10T16:03:32.912Z,11.75
2019-06-10T16:06:02.915Z,6.33
2019-06-10T16:08:32.474Z,12.03
2019-06-10T16:11:03.075Z,10.82
2019-06-10T16:13:32.317Z,7.08
2019-06-10T16:16:03.380Z,9.25
2019-06-10T16:18:32.907Z,7.40
2019-06-10T16:21:04.232Z,8.93
2019-06-10T16:23:34.784Z,12.30
2019-06-10T16:26:03.464Z,6.78
2019-06-10T16:28:32.836Z,6.70
2019-06-10T16:31:03.917Z,8.60
2019-06-10T16:33:33.490Z,8.33
2019-06-10T16:36:03.113Z,6.60
2019-06-10T16:38:32.811Z,13.32
2019-06-10T16:41:03.594Z,7.40
2019-06-10T16:43:33.540Z,5.65
2019-06-10T16:46:03.227Z,7.20
2019-06-10T16:48:33.331Z,10.93
2019-06-10T16:51:04.942Z,9.98
2019-06-10T16:53:35.650Z,13.25
2019-06-10T16:56:03.890Z,13.35
2019-06-10T16:58:35.405Z,18.02
2019-06-10T17:01:05.081Z,12.10
2019-06-10T17:03:34.029Z,12.65
2019-06-10T17:06:03.025Z,23.87
2019-06-10T17:08:33.495Z,13.32
2019-06-10T17:11:03.355Z,28.70
2019-06-10T17:13:32.328Z,32.05
2019-06-10T17:16:03.490Z,28.57
2019-06-10T17:18:33.680Z,15.23
2019-06-10T17:21:02.952Z,10.60
2019-06-10T17:23:36.257Z,16.57
2019-06-10T17:26:02.525Z,19.35
2019-06-10T17:28:36.193Z,14.15
2019-06-10T17:31:03.817Z,39.92
2019-06-10T17:33:34.643Z,48.65
2019-06-10T17:36:03.418Z,48.15
2019-06-10T17:38:34.644Z,42.33
2019-06-10T17:41:03.378Z,36.08
2019-06-10T17:43:33.983Z,34.00
2019-06-10T17:46:03.295Z,24.02
2019-06-10T17:48:33.718Z,29.27
2019-06-10T17:51:02.624Z,34.38
2019-06-10T17:53:34.640Z,37.05
2019-06-10T17:56:03.290Z,34.18
2019-06-10T17:58:47.584Z,25.43
2019-06-10T18:01:03.593Z,33.60
2019-06-10T18:03:33.438Z,33.95
2019-06-10T18:06:02.830Z,30.55
2019-06-10T18:08:34.980Z,24.98
2019-06-10T18:11:03.214Z,21.10
2019-06-10T18:13:33.140Z,18.02
2019-06-10T18:16:04.809Z,21.25
2019-06-10T18:18:36.559Z,18.77
2019-06-10T18:21:03.714Z,14.23
2019-06-10T18:23:33.137Z,11.68
2019-06-10T18:26:03.193Z,10.48
2019-06-10T18:28:39.223Z,20.08
2019-06-10T18:31:02.538Z,17.77
2019-06-10T18:33:34.514Z,10.98
2019-06-10T18:36:02.462Z,9.15
2019-06-10T18:38:33.983Z,18.48
2019-06-10T18:41:03.246Z,14.18
2019-06-10T18:43:36.947Z,21.97
2019-06-10T18:46:05.821Z,14.40
2019-06-10T18:48:37.873Z,14.03
2019-06-10T18:51:05.837Z,14.45
2019-06-10T18:53:36.449Z,26.10
2019-06-10T18:56:08.840Z,31.93
2019-06-10T18:58:37.823Z,22.58
2019-06-10T19:01:08.169Z,14.83
2019-06-10T19:03:38.238Z,14.68
2019-06-10T19:06:08.306Z,15.13
2019-06-10T19:08:43.383Z,11.40
2019-06-10T19:11:10.993Z,7.97
2019-06-10T19:13:40.961Z,10.88
2019-06-10T19:16:12.731Z,12.35
2019-06-10T19:18:42.943Z,11.43
2019-06-10T19:21:12.813Z,13.03
2019-06-10T19:23:43.569Z,13.70
2019-06-10T19:26:13.390Z,12.47
2019-06-10T19:28:45.030Z,15.53
2019-06-10T19:31:13.478Z,16.87
2019-06-10T19:33:45.137Z,18.73
2019-06-10T19:36:12.790Z,23.52
2019-06-10T19:38:44.124Z,8.85
2019-06-10T19:41:11.790Z,7.20
2019-06-10T19:43:41.513Z,11.95
2019-06-10T19:46:12.747Z,13.78
2019-06-10T19:48:47.981Z,15.28
2019-06-10T19:51:12.211Z,20.32
2019-06-10T19:53:43.844Z,9.68
2019-06-10T19:56:13.039Z,13.13
2019-06-10T19:58:43.428Z,12.37
2019-06-10T20:01:12.340Z,15.43
2019-06-10T20:03:44.951Z,9.80
2019-06-10T20:06:15.095Z,9.35
2019-06-10T20:08:46.006Z,9.63
2019-06-10T20:11:13.864Z,8.80
2019-06-10T20:13:43.629Z,11.68
2019-06-10T20:16:12.807Z,9.33
2019-06-10T20:18:47.584Z,10.60
2019-06-10T20:21:13.194Z,9.70
2019-06-10T20:23:44.559Z,12.47
2019-06-10T20:26:12.171Z,7.97
2019-06-10T20:28:43.341Z,11.97
2019-06-10T20:31:12.744Z,8.93
2019-06-10T20:33:43.077Z,10.78
2019-06-10T20:36:21.852Z,6.90
2019-06-10T20:38:48.855Z,7.90
2019-06-10T20:41:18.450Z,12.45
2019-06-10T20:43:47.427Z,10.85
2019-06-10T20:46:16.140Z,10.13
2019-06-10T20:48:47.153Z,10.28
2019-06-10T20:51:15.173Z,8.00
2019-06-10T20:53:45.933Z,10.03
2019-06-10T20:56:14.348Z,12.00
2019-06-10T20:58:43.775Z,8.25
2019-06-10T21:01:13.197Z,7.95
2019-06-10T21:03:44.213Z,7.25
2019-06-10T21:06:13.121Z,8.20
2019-06-10T21:08:45.130Z,5.12
2019-06-10T21:11:13.032Z,8.08
2019-06-10T21:13:46.933Z,8.48
2019-06-10T21:16:13.864Z,6.45
2019-06-10T21:18:45.542Z,8.00
2019-06-10T21:21:12.818Z,8.60
2019-06-10T21:23:47.611Z,5.95
2019-06-10T21:26:19.860Z,8.40
2019-06-10T21:28:48.949Z,7.50
2019-06-10T21:31:17.581Z,12.00
2019-06-10T21:33:47.702Z,7.05
2019-06-10T21:36:16.455Z,6.70
2019-06-10T21:38:48.155Z,9.05
2019-06-10T21:41:15.366Z,9.48
2019-06-10T21:43:52.816Z,8.23
2019-06-10T21:46:22.456Z,8.83
2019-06-10T21:48:50.549Z,9.38
2019-06-10T21:51:19.235Z,10.50
2019-06-10T21:53:48.598Z,8.10
2019-06-10T21:56:17.321Z,6.60
2019-06-10T21:58:46.862Z,9.95
2019-06-10T22:01:17.098Z,7.58
2019-06-10T22:03:51.111Z,8.70
2019-06-10T22:06:16.158Z,6.65
2019-06-10T22:08:45.741Z,11.15
2019-06-10T22:11:14.481Z,8.95
2019-06-10T22:13:44.082Z,8.45
2019-06-10T22:16:12.828Z,11.63
2019-06-10T22:18:41.514Z,7.37
2019-06-10T22:21:10.200Z,13.05
2019-06-10T22:23:38.822Z,9.25
2019-06-10T22:26:08.490Z,6.12
2019-06-10T22:28:43.113Z,7.37
2019-06-10T22:31:19.090Z,6.25
2019-06-10T22:33:43.129Z,6.62
2019-06-10T22:36:12.897Z,11.48
2019-06-10T22:38:41.867Z,7.25
2019-06-10T22:41:12.293Z,11.35
2019-06-10T22:43:42.671Z,11.43
2019-06-10T22:46:11.405Z,7.60
2019-06-10T22:48:42.376Z,10.48
2019-06-10T22:51:12.159Z,7.47
2019-06-10T22:53:42.448Z,10.28
2019-06-10T22:56:12.340Z,10.15
2019-06-10T22:58:47.639Z,6.72
2019-06-10T23:01:30.727Z,7.37
2019-06-10T23:03:50.135Z,6.28
2019-06-10T23:06:18.800Z,8.58
2019-06-10T23:08:48.204Z,5.72
2019-06-10T23:11:17.006Z,8.83
2019-06-10T23:13:48.618Z,10.95
2019-06-10T23:16:17.339Z,9.88
2019-06-10T23:18:46.011Z,8.43
2019-06-10T23:21:14.716Z,7.60
2019-06-10T23:23:43.384Z,10.00
2019-06-10T23:26:13.076Z,11.40
2019-06-10T23:28:42.093Z,8.00
2019-06-10T23:31:12.761Z,9.88
2019-06-10T23:33:42.590Z,11.97
2019-06-10T23:36:13.094Z,11.63
2019-06-10T23:38:45.014Z,7.47
2019-06-10T23:41:13.804Z,8.38
2019-06-10T23:43:42.441Z,10.25
2019-06-10T23:46:12.084Z,5.95
2019-06-10T23:48:44.909Z,10.28
2019-06-10T23:51:13.474Z,7.67
2019-06-10T23:53:43.168Z,8.48
2019-06-10T23:56:12.841Z,10.70
2019-06-10T23:58:43.291Z,10.53
